Cape Kestrel — D5MF7 — position and weather

sailwx.info

Track history (hours):
 
Tides and Currents Weather Stations Pressure Air Temp Water Temp Dewpoint Dewpoint Depression Visibility Wind Speed Wind Dir Waves Ship Positions

Cape Kestrel

Last reported at 2018-Jun-19 14:16 UTC. Time now 2018-Jun-20 12:47 UTC.
Position N 36°48' E 013°14'.

Length 292 m; draft 10.6 m.

Type: Cargo ship. MMSI: 636092736.

Date/timePositionNaut miles runAvg speedWind from/ knotsBaromVisibWave heightAir tempDewpointWater temp
2018-Jun-19 14:16N 36°48' E 013°14'412.4
2018-Jun-19 13:59N 36°47' E 013°18'612.3
2018-Jun-19 13:28N 36°46' E 013°26'612.1
2018-Jun-19 13:00N 36°44' E 013°32'611.9
2018-Jun-19 12:30N 36°43' E 013°40'611.5
2018-Jun-19 12:00N 36°41' E 013°46'611.4
2018-Jun-19 11:30N 36°39' E 013°53'511.1
2018-Jun-19 11:00N 36°38' E 013°60'510.8
2018-Jun-19 10:30N 36°36' E 014°06'510.7
2018-Jun-19 10:00N 36°35' E 014°13'611.3
2018-Jun-19 09:30N 36°32' E 014°19'611.7
2018-Jun-19 09:00N 36°31' E 014°26'911.4
2018-Jun-19 08:12N 36°29' E 014°37'311.4
2018-Jun-19 07:57N 36°29' E 014°41'511.3
2018-Jun-19 07:30N 36°29' E 014°47'511.0
2018-Jun-19 07:00N 36°29' E 014°54'  
2018-Jun-12 09:09N 39°59' E 025°59'2 6.6
2018-Jun-12 08:53N 39°57' E 025°58'3 6.8
2018-Jun-12 08:30N 39°56' E 025°55'4 7.8
2018-Jun-12 08:00N 39°54' E 025°50'4 8.5
2018-Jun-12 07:30N 39°53' E 025°45'4 8.6
2018-Jun-12 07:00N 39°51' E 025°40'5 9.3
2018-Jun-12 06:30N 39°49' E 025°35'4 5.6
2018-Jun-12 05:50N 39°47' E 025°31'1 1.1
2018-Jun-12 05:21N 39°47' E 025°31'0 0.6
2018-Jun-12 04:53N 39°47' E 025°31'0 0.6
2018-Jun-12 04:29N 39°47' E 025°31'0 0.7
2018-Jun-12 03:54N 39°47' E 025°32'2 0.6
2018-Jun-12 01:09N 39°48' E 025°33'1 0.8
2018-Jun-11 23:38N 39°48' E 025°32'  
2018-Jun-09 19:03N 36°33' E 015°08'114.5
2018-Jun-09 19:00N 36°33' E 015°07'814.6
2018-Jun-09 18:28N 36°34' E 014°57'714.7
2018-Jun-09 18:00N 36°34' E 014°48'714.7
2018-Jun-09 17:30N 36°36' E 014°40'714.4
2018-Jun-09 17:00N 36°37' E 014°31'714.3
2018-Jun-09 16:30N 36°39' E 014°22'714.2
2018-Jun-09 16:00N 36°40' E 014°13'1514.5
2018-Jun-09 15:00N 36°43' E 013°56'714.5
2018-Jun-09 14:30N 36°44' E 013°47'  
Track history (hours):
 
Tides and Currents Weather Stations Pressure Air Temp Water Temp Dewpoint Dewpoint Depression Visibility Wind Speed Wind Dir Waves Ship Positions

Cape Kestrel

Last reported at 2018-Jun-19 14:16 UTC. Time now 2018-Jun-20 12:47 UTC.
Position N 36°48' E 013°14'.

Length 292 m; draft 10.6 m.

Type: Cargo ship. MMSI: 636092736.

Date/timePositionNaut miles runAvg speedWind from/ knotsBaromVisibWave heightAir tempDewpointWater temp
2018-Jun-19 14:16N 36°48' E 013°14'412.4
2018-Jun-19 13:59N 36°47' E 013°18'612.3
2018-Jun-19 13:28N 36°46' E 013°26'612.1
2018-Jun-19 13:00N 36°44' E 013°32'611.9
2018-Jun-19 12:30N 36°43' E 013°40'611.5
2018-Jun-19 12:00N 36°41' E 013°46'611.4
2018-Jun-19 11:30N 36°39' E 013°53'511.1
2018-Jun-19 11:00N 36°38' E 013°60'510.8
2018-Jun-19 10:30N 36°36' E 014°06'510.7
2018-Jun-19 10:00N 36°35' E 014°13'611.3
2018-Jun-19 09:30N 36°32' E 014°19'611.7
2018-Jun-19 09:00N 36°31' E 014°26'911.4
2018-Jun-19 08:12N 36°29' E 014°37'311.4
2018-Jun-19 07:57N 36°29' E 014°41'511.3
2018-Jun-19 07:30N 36°29' E 014°47'511.0
2018-Jun-19 07:00N 36°29' E 014°54'  
2018-Jun-12 09:09N 39°59' E 025°59'2 6.6
2018-Jun-12 08:53N 39°57' E 025°58'3 6.8
2018-Jun-12 08:30N 39°56' E 025°55'4 7.8
2018-Jun-12 08:00N 39°54' E 025°50'4 8.5
2018-Jun-12 07:30N 39°53' E 025°45'4 8.6
2018-Jun-12 07:00N 39°51' E 025°40'5 9.3
2018-Jun-12 06:30N 39°49' E 025°35'4 5.6
2018-Jun-12 05:50N 39°47' E 025°31'1 1.1
2018-Jun-12 05:21N 39°47' E 025°31'0 0.6
2018-Jun-12 04:53N 39°47' E 025°31'0 0.6
2018-Jun-12 04:29N 39°47' E 025°31'0 0.7
2018-Jun-12 03:54N 39°47' E 025°32'2 0.6
2018-Jun-12 01:09N 39°48' E 025°33'1 0.8
2018-Jun-11 23:38N 39°48' E 025°32'  
2018-Jun-09 19:03N 36°33' E 015°08'114.5
2018-Jun-09 19:00N 36°33' E 015°07'814.6
2018-Jun-09 18:28N 36°34' E 014°57'714.7
2018-Jun-09 18:00N 36°34' E 014°48'714.7
2018-Jun-09 17:30N 36°36' E 014°40'714.4
2018-Jun-09 17:00N 36°37' E 014°31'714.3
2018-Jun-09 16:30N 36°39' E 014°22'714.2
2018-Jun-09 16:00N 36°40' E 014°13'1514.5
2018-Jun-09 15:00N 36°43' E 013°56'714.5
2018-Jun-09 14:30N 36°44' E 013°47'  

Dump ship's entire track history